sensor_id;sensor_type;location;lat;lon;timestamp;pressure;altitude;pressure_sealevel;temperature;humidity
79690;BME280;69156;55.932;-3.238;2023-08-31T00:00:34;100170.78;;;13.60;63.12
79690;BME280;69156;55.932;-3.238;2023-08-31T00:03:00;100172.15;;;13.56;63.28
79690;BME280;69156;55.932;-3.238;2023-08-31T00:05:25;100170.96;;;13.47;63.64
79690;BME280;69156;55.932;-3.238;2023-08-31T00:07:50;100170.92;;;13.64;63.71
79690;BME280;69156;55.932;-3.238;2023-08-31T00:10:16;100168.53;;;13.50;63.81
79690;BME280;69156;55.932;-3.238;2023-08-31T00:12:42;100168.88;;;13.39;63.82
79690;BME280;69156;55.932;-3.238;2023-08-31T00:15:08;100168.21;;;13.46;63.95
79690;BME280;69156;55.932;-3.238;2023-08-31T00:17:34;100167.18;;;13.49;63.98
79690;BME280;69156;55.932;-3.238;2023-08-31T00:19:59;100167.66;;;13.40;64.20
79690;BME280;69156;55.932;-3.238;2023-08-31T00:22:25;100169.18;;;13.58;64.33
79690;BME280;69156;55.932;-3.238;2023-08-31T00:24:52;100167.82;;;13.38;64.48
79690;BME280;69156;55.932;-3.238;2023-08-31T00:27:17;100161.77;;;13.45;64.61
79690;BME280;69156;55.932;-3.238;2023-08-31T00:29:42;100164.58;;;13.30;64.81
79690;BME280;69156;55.932;-3.238;2023-08-31T00:32:07;100164.98;;;13.28;64.95
79690;BME280;69156;55.932;-3.238;2023-08-31T00:34:33;100163.16;;;13.30;64.84
79690;BME280;69156;55.932;-3.238;2023-08-31T00:36:59;100163.42;;;13.33;64.96
79690;BME280;69156;55.932;-3.238;2023-08-31T00:39:24;100158.74;;;13.29;64.98
79690;BME280;69156;55.932;-3.238;2023-08-31T00:41:50;100157.79;;;13.09;65.36
79690;BME280;69156;55.932;-3.238;2023-08-31T00:44:15;100155.82;;;13.13;65.54
79690;BME280;69156;55.932;-3.238;2023-08-31T00:46:41;100158.00;;;13.14;65.42
79690;BME280;69156;55.932;-3.238;2023-08-31T00:49:06;100157.20;;;13.16;65.40
79690;BME280;69156;55.932;-3.238;2023-08-31T00:51:32;100160.00;;;13.24;65.26
79690;BME280;69156;55.932;-3.238;2023-08-31T00:53:58;100162.97;;;13.22;65.45
79690;BME280;69156;55.932;-3.238;2023-08-31T00:56:23;100160.12;;;13.15;65.55
79690;BME280;69156;55.932;-3.238;2023-08-31T00:58:48;100159.28;;;13.11;65.71
79690;BME280;69156;55.932;-3.238;2023-08-31T01:01:20;100160.82;;;13.18;65.57
79690;BME280;69156;55.932;-3.238;2023-08-31T01:03:43;100163.15;;;13.11;65.69
79690;BME280;69156;55.932;-3.238;2023-08-31T01:06:11;100166.68;;;13.01;65.75
79690;BME280;69156;55.932;-3.238;2023-08-31T01:08:47;100167.57;;;12.96;65.82
79690;BME280;69156;55.932;-3.238;2023-08-31T01:11:03;100168.10;;;13.04;65.88
79690;BME280;69156;55.932;-3.238;2023-08-31T01:13:24;100170.52;;;13.05;65.83
79690;BME280;69156;55.932;-3.238;2023-08-31T01:15:59;100169.98;;;13.02;65.82
79690;BME280;69156;55.932;-3.238;2023-08-31T01:18:16;100171.31;;;12.98;65.82
79690;BME280;69156;55.932;-3.238;2023-08-31T01:20:44;100167.90;;;12.84;65.77
79690;BME280;69156;55.932;-3.238;2023-08-31T01:23:08;100165.92;;;12.82;65.86
79690;BME280;69156;55.932;-3.238;2023-08-31T01:25:30;100164.00;;;12.71;66.22
79690;BME280;69156;55.932;-3.238;2023-08-31T01:27:54;100158.65;;;12.72;66.40
79690;BME280;69156;55.932;-3.238;2023-08-31T01:30:19;100158.67;;;12.79;66.36
79690;BME280;69156;55.932;-3.238;2023-08-31T01:32:45;100156.43;;;12.81;66.38
79690;BME280;69156;55.932;-3.238;2023-08-31T01:35:10;100153.01;;;12.72;66.43
79690;BME280;69156;55.932;-3.238;2023-08-31T01:37:39;100153.62;;;12.60;66.53
79690;BME280;69156;55.932;-3.238;2023-08-31T01:40:06;100149.33;;;12.63;66.64
79690;BME280;69156;55.932;-3.238;2023-08-31T01:42:27;100145.32;;;12.60;66.61
79690;BME280;69156;55.932;-3.238;2023-08-31T01:44:52;100140.23;;;12.64;66.36
79690;BME280;69156;55.932;-3.238;2023-08-31T01:47:17;100139.38;;;12.61;66.17
79690;BME280;69156;55.932;-3.238;2023-08-31T01:49:42;100139.28;;;12.70;66.10
79690;BME280;69156;55.932;-3.238;2023-08-31T01:52:08;100138.42;;;12.63;66.13
79690;BME280;69156;55.932;-3.238;2023-08-31T01:54:34;100137.70;;;12.64;66.20
79690;BME280;69156;55.932;-3.238;2023-08-31T01:56:59;100139.87;;;12.63;66.31
79690;BME280;69156;55.932;-3.238;2023-08-31T01:59:26;100137.72;;;12.74;66.49
79690;BME280;69156;55.932;-3.238;2023-08-31T02:01:51;100139.71;;;12.66;66.69
79690;BME280;69156;55.932;-3.238;2023-08-31T02:04:17;100143.66;;;12.54;66.76
79690;BME280;69156;55.932;-3.238;2023-08-31T02:06:43;100145.70;;;12.67;66.70
79690;BME280;69156;55.932;-3.238;2023-08-31T02:09:08;100147.78;;;12.44;66.94
79690;BME280;69156;55.932;-3.238;2023-08-31T02:11:33;100145.44;;;12.41;67.19
79690;BME280;69156;55.932;-3.238;2023-08-31T02:13:59;100144.47;;;12.48;67.40
79690;BME280;69156;55.932;-3.238;2023-08-31T02:16:24;100143.59;;;12.52;67.32
79690;BME280;69156;55.932;-3.238;2023-08-31T02:18:50;100143.02;;;12.33;67.34
79690;BME280;69156;55.932;-3.238;2023-08-31T02:21:16;100142.90;;;12.26;67.49
79690;BME280;69156;55.932;-3.238;2023-08-31T02:23:41;100142.23;;;12.43;67.58
79690;BME280;69156;55.932;-3.238;2023-08-31T02:26:07;100148.30;;;12.50;67.70
79690;BME280;69156;55.932;-3.238;2023-08-31T02:28:32;100146.21;;;12.33;67.83
79690;BME280;69156;55.932;-3.238;2023-08-31T02:31:01;100146.65;;;12.32;68.04
79690;BME280;69156;55.932;-3.238;2023-08-31T02:33:22;100149.10;;;12.26;68.09
79690;BME280;69156;55.932;-3.238;2023-08-31T02:35:48;100147.47;;;12.24;68.22
79690;BME280;69156;55.932;-3.238;2023-08-31T02:38:13;100142.62;;;12.32;67.94
79690;BME280;69156;55.932;-3.238;2023-08-31T02:40:38;100141.34;;;12.36;67.77
79690;BME280;69156;55.932;-3.238;2023-08-31T02:43:04;100142.15;;;12.56;67.81
79690;BME280;69156;55.932;-3.238;2023-08-31T02:45:29;100145.80;;;12.49;67.84
79690;BME280;69156;55.932;-3.238;2023-08-31T02:47:55;100143.15;;;12.38;67.90
79690;BME280;69156;55.932;-3.238;2023-08-31T02:50:20;100144.71;;;12.33;68.03
79690;BME280;69156;55.932;-3.238;2023-08-31T02:52:46;100145.60;;;12.26;68.02
79690;BME280;69156;55.932;-3.238;2023-08-31T02:55:12;100144.18;;;12.34;67.89
79690;BME280;69156;55.932;-3.238;2023-08-31T02:57:38;100147.27;;;12.51;67.63
79690;BME280;69156;55.932;-3.238;2023-08-31T03:00:04;100146.52;;;12.48;67.39
79690;BME280;69156;55.932;-3.238;2023-08-31T03:02:28;100143.61;;;12.23;67.57
79690;BME280;69156;55.932;-3.238;2023-08-31T03:04:55;100146.34;;;12.39;67.53
79690;BME280;69156;55.932;-3.238;2023-08-31T03:07:19;100147.46;;;12.15;67.57
79690;BME280;69156;55.932;-3.238;2023-08-31T03:09:49;100147.72;;;11.89;67.83
79690;BME280;69156;55.932;-3.238;2023-08-31T03:12:11;100145.29;;;11.85;67.75
79690;BME280;69156;55.932;-3.238;2023-08-31T03:14:37;100140.69;;;11.88;68.06
79690;BME280;69156;55.932;-3.238;2023-08-31T03:17:02;100136.58;;;11.95;67.86
79690;BME280;69156;55.932;-3.238;2023-08-31T03:19:28;100138.13;;;11.94;67.69
79690;BME280;69156;55.932;-3.238;2023-08-31T03:21:53;100135.74;;;11.99;67.44
79690;BME280;69156;55.932;-3.238;2023-08-31T03:24:18;100135.34;;;11.94;67.21
79690;BME280;69156;55.932;-3.238;2023-08-31T03:26:43;100135.74;;;11.98;67.11
79690;BME280;69156;55.932;-3.238;2023-08-31T03:29:08;100136.61;;;11.91;67.06
79690;BME280;69156;55.932;-3.238;2023-08-31T03:31:34;100133.63;;;11.82;67.20
79690;BME280;69156;55.932;-3.238;2023-08-31T03:33:59;100132.41;;;11.81;67.47
79690;BME280;69156;55.932;-3.238;2023-08-31T03:36:25;100132.69;;;11.75;67.47
79690;BME280;69156;55.932;-3.238;2023-08-31T03:38:50;100133.08;;;11.69;67.28
79690;BME280;69156;55.932;-3.238;2023-08-31T03:41:16;100130.31;;;11.77;67.36
79690;BME280;69156;55.932;-3.238;2023-08-31T03:43:41;100131.26;;;11.76;67.52
79690;BME280;69156;55.932;-3.238;2023-08-31T03:46:06;100131.53;;;11.72;67.52
79690;BME280;69156;55.932;-3.238;2023-08-31T03:48:32;100129.83;;;11.75;67.78
79690;BME280;69156;55.932;-3.238;2023-08-31T03:50:57;100124.92;;;11.69;68.03
79690;BME280;69156;55.932;-3.238;2023-08-31T03:53:22;100129.30;;;11.76;67.83
79690;BME280;69156;55.932;-3.238;2023-08-31T03:55:47;100130.68;;;11.84;67.79
79690;BME280;69156;55.932;-3.238;2023-08-31T03:58:13;100131.43;;;11.91;67.57
79690;BME280;69156;55.932;-3.238;2023-08-31T04:00:38;100136.09;;;11.90;67.19
79690;BME280;69156;55.932;-3.238;2023-08-31T04:03:04;100141.07;;;11.83;67.11
79690;BME280;69156;55.932;-3.238;2023-08-31T04:05:32;100143.62;;;11.77;66.95
79690;BME280;69156;55.932;-3.238;2023-08-31T04:07:54;100143.71;;;11.62;67.17
79690;BME280;69156;55.932;-3.238;2023-08-31T04:10:19;100144.37;;;11.61;67.30
79690;BME280;69156;55.932;-3.238;2023-08-31T04:12:45;100146.33;;;11.65;67.41
79690;BME280;69156;55.932;-3.238;2023-08-31T04:15:10;100145.71;;;11.67;67.59
79690;BME280;69156;55.932;-3.238;2023-08-31T04:17:35;100141.95;;;11.74;67.34
79690;BME280;69156;55.932;-3.238;2023-08-31T04:20:00;100141.54;;;11.87;67.52
79690;BME280;69156;55.932;-3.238;2023-08-31T04:22:26;100139.85;;;11.85;67.52
79690;BME280;69156;55.932;-3.238;2023-08-31T04:24:52;100142.09;;;11.97;67.44
79690;BME280;69156;55.932;-3.238;2023-08-31T04:27:16;100144.03;;;11.88;67.33
79690;BME280;69156;55.932;-3.238;2023-08-31T04:29:42;100144.07;;;11.94;67.36
79690;BME280;69156;55.932;-3.238;2023-08-31T04:32:07;100145.54;;;11.84;67.08
79690;BME280;69156;55.932;-3.238;2023-08-31T04:34:34;100147.04;;;11.82;67.01
79690;BME280;69156;55.932;-3.238;2023-08-31T04:36:59;100151.49;;;11.58;67.52
79690;BME280;69156;55.932;-3.238;2023-08-31T04:39:24;100155.32;;;11.51;67.63
79690;BME280;69156;55.932;-3.238;2023-08-31T04:41:49;100156.73;;;11.47;67.83
79690;BME280;69156;55.932;-3.238;2023-08-31T04:44:14;100155.31;;;11.37;68.04
79690;BME280;69156;55.932;-3.238;2023-08-31T04:46:40;100159.39;;;11.39;68.22
79690;BME280;69156;55.932;-3.238;2023-08-31T04:49:06;100160.73;;;11.52;68.37
79690;BME280;69156;55.932;-3.238;2023-08-31T04:51:31;100163.61;;;11.65;67.97
79690;BME280;69156;55.932;-3.238;2023-08-31T04:53:56;100164.36;;;11.60;67.86
79690;BME280;69156;55.932;-3.238;2023-08-31T04:56:22;100165.01;;;11.65;67.73
79690;BME280;69156;55.932;-3.238;2023-08-31T04:58:47;100164.99;;;11.63;67.99
79690;BME280;69156;55.932;-3.238;2023-08-31T05:01:13;100166.03;;;11.58;68.30
79690;BME280;69156;55.932;-3.238;2023-08-31T05:03:38;100168.46;;;11.50;68.24
79690;BME280;69156;55.932;-3.238;2023-08-31T05:06:04;100168.85;;;11.46;67.93
79690;BME280;69156;55.932;-3.238;2023-08-31T05:08:29;100167.25;;;11.33;67.75
79690;BME280;69156;55.932;-3.238;2023-08-31T05:10:55;100167.22;;;11.42;67.87
79690;BME280;69156;55.932;-3.238;2023-08-31T05:13:21;100170.70;;;11.56;67.83
79690;BME280;69156;55.932;-3.238;2023-08-31T05:15:46;100176.78;;;11.42;67.96
79690;BME280;69156;55.932;-3.238;2023-08-31T05:18:11;100185.64;;;11.37;67.67
79690;BME280;69156;55.932;-3.238;2023-08-31T05:20:36;100186.07;;;11.58;67.32
79690;BME280;69156;55.932;-3.238;2023-08-31T05:23:02;100187.24;;;11.34;67.59
79690;BME280;69156;55.932;-3.238;2023-08-31T05:25:28;100186.51;;;11.35;67.69
79690;BME280;69156;55.932;-3.238;2023-08-31T05:27:54;100183.72;;;11.47;67.75
79690;BME280;69156;55.932;-3.238;2023-08-31T05:30:19;100182.27;;;11.47;67.97
79690;BME280;69156;55.932;-3.238;2023-08-31T05:32:45;100178.15;;;11.53;67.76
79690;BME280;69156;55.932;-3.238;2023-08-31T05:35:11;100173.95;;;11.70;67.50
79690;BME280;69156;55.932;-3.238;2023-08-31T05:37:36;100175.95;;;11.75;67.68
79690;BME280;69156;55.932;-3.238;2023-08-31T05:40:02;100177.39;;;11.76;67.94
79690;BME280;69156;55.932;-3.238;2023-08-31T05:42:28;100181.31;;;11.67;68.10
79690;BME280;69156;55.932;-3.238;2023-08-31T05:44:53;100183.68;;;11.60;68.11
79690;BME280;69156;55.932;-3.238;2023-08-31T05:47:18;100185.01;;;11.60;68.24
79690;BME280;69156;55.932;-3.238;2023-08-31T05:49:44;100188.59;;;11.71;68.23
79690;BME280;69156;55.932;-3.238;2023-08-31T05:52:11;100188.99;;;11.65;68.44
79690;BME280;69156;55.932;-3.238;2023-08-31T05:54:37;100190.87;;;11.70;68.46
79690;BME280;69156;55.932;-3.238;2023-08-31T05:57:03;100192.49;;;11.89;68.19
79690;BME280;69156;55.932;-3.238;2023-08-31T05:59:28;100193.76;;;11.83;68.16
79690;BME280;69156;55.932;-3.238;2023-08-31T06:01:54;100189.80;;;12.06;67.83
79690;BME280;69156;55.932;-3.238;2023-08-31T06:04:19;100189.01;;;12.16;67.49
79690;BME280;69156;55.932;-3.238;2023-08-31T06:06:44;100186.81;;;12.12;67.67
79690;BME280;69156;55.932;-3.238;2023-08-31T06:09:09;100186.18;;;12.16;67.73
79690;BME280;69156;55.932;-3.238;2023-08-31T06:11:35;100189.20;;;12.22;67.48
79690;BME280;69156;55.932;-3.238;2023-08-31T06:14:00;100190.10;;;12.40;67.49
79690;BME280;69156;55.932;-3.238;2023-08-31T06:16:26;100191.59;;;12.27;67.43
79690;BME280;69156;55.932;-3.238;2023-08-31T06:18:51;100192.62;;;12.45;67.77
79690;BME280;69156;55.932;-3.238;2023-08-31T06:21:17;100191.22;;;12.56;67.27
79690;BME280;69156;55.932;-3.238;2023-08-31T06:23:43;100194.00;;;12.54;67.39
79690;BME280;69156;55.932;-3.238;2023-08-31T06:26:09;100193.96;;;12.69;67.38
79690;BME280;69156;55.932;-3.238;2023-08-31T06:28:35;100196.10;;;12.79;67.17
79690;BME280;69156;55.932;-3.238;2023-08-31T06:31:00;100196.10;;;12.84;67.32
79690;BME280;69156;55.932;-3.238;2023-08-31T06:33:25;100195.86;;;12.81;67.56
79690;BME280;69156;55.932;-3.238;2023-08-31T06:35:50;100193.30;;;13.01;67.67
79690;BME280;69156;55.932;-3.238;2023-08-31T06:38:16;100193.77;;;13.09;67.89
79690;BME280;69156;55.932;-3.238;2023-08-31T06:40:42;100195.32;;;12.99;68.22
79690;BME280;69156;55.932;-3.238;2023-08-31T06:43:10;100198.90;;;13.26;68.13
79690;BME280;69156;55.932;-3.238;2023-08-31T06:45:36;100199.87;;;13.34;68.14
79690;BME280;69156;55.932;-3.238;2023-08-31T06:48:01;100199.24;;;13.42;68.12
79690;BME280;69156;55.932;-3.238;2023-08-31T06:50:26;100199.42;;;13.43;67.98
79690;BME280;69156;55.932;-3.238;2023-08-31T06:52:51;100200.54;;;13.53;67.37
79690;BME280;69156;55.932;-3.238;2023-08-31T06:55:18;100198.11;;;13.64;67.04
79690;BME280;69156;55.932;-3.238;2023-08-31T06:57:42;100198.14;;;13.70;66.26
79690;BME280;69156;55.932;-3.238;2023-08-31T07:00:08;100199.39;;;13.70;66.04
79690;BME280;69156;55.932;-3.238;2023-08-31T07:02:33;100202.71;;;13.82;65.40
79690;BME280;69156;55.932;-3.238;2023-08-31T07:04:58;100203.87;;;13.50;65.63
79690;BME280;69156;55.932;-3.238;2023-08-31T07:07:23;100201.86;;;13.51;65.32
79690;BME280;69156;55.932;-3.238;2023-08-31T07:09:49;100202.91;;;13.64;65.53
79690;BME280;69156;55.932;-3.238;2023-08-31T07:12:15;100197.89;;;13.65;65.69
79690;BME280;69156;55.932;-3.238;2023-08-31T07:15:21;100197.58;;;14.01;65.21
79690;BME280;69156;55.932;-3.238;2023-08-31T07:17:46;100197.94;;;14.09;65.19
79690;BME280;69156;55.932;-3.238;2023-08-31T07:20:24;100199.09;;;14.20;65.15
79690;BME280;69156;55.932;-3.238;2023-08-31T07:22:39;100201.50;;;14.13;65.31
79690;BME280;69156;55.932;-3.238;2023-08-31T07:40:58;100204.31;;;14.80;64.14
79690;BME280;69156;55.932;-3.238;2023-08-31T07:43:15;100205.84;;;14.88;64.25
79690;BME280;69156;55.932;-3.238;2023-08-31T07:49:39;100215.12;;;15.27;63.55
79690;BME280;69156;55.932;-3.238;2023-08-31T07:52:04;100215.95;;;14.73;63.99
79690;BME280;69156;55.932;-3.238;2023-08-31T07:54:31;100216.44;;;14.98;63.44
79690;BME280;69156;55.932;-3.238;2023-08-31T07:56:55;100215.75;;;15.14;62.99
79690;BME280;69156;55.932;-3.238;2023-08-31T07:59:20;100214.85;;;15.29;62.57
79690;BME280;69156;55.932;-3.238;2023-08-31T08:01:46;100215.02;;;15.44;61.24
79690;BME280;69156;55.932;-3.238;2023-08-31T08:04:11;100211.85;;;15.39;60.43
79690;BME280;69156;55.932;-3.238;2023-08-31T08:06:37;100209.46;;;15.44;60.53
79690;BME280;69156;55.932;-3.238;2023-08-31T08:09:03;100210.95;;;15.57;61.05
79690;BME280;69156;55.932;-3.238;2023-08-31T08:11:28;100209.78;;;15.54;60.59
79690;BME280;69156;55.932;-3.238;2023-08-31T08:13:54;100209.97;;;15.52;60.41
79690;BME280;69156;55.932;-3.238;2023-08-31T08:16:19;100209.28;;;15.57;60.44
79690;BME280;69156;55.932;-3.238;2023-08-31T08:18:44;100208.69;;;15.49;59.86
79690;BME280;69156;55.932;-3.238;2023-08-31T08:21:10;100210.67;;;15.54;59.83
79690;BME280;69156;55.932;-3.238;2023-08-31T08:23:35;100211.37;;;15.52;59.71
79690;BME280;69156;55.932;-3.238;2023-08-31T08:26:00;100213.71;;;15.63;59.39
79690;BME280;69156;55.932;-3.238;2023-08-31T08:28:26;100211.56;;;15.65;58.56
79690;BME280;69156;55.932;-3.238;2023-08-31T08:30:51;100210.43;;;15.62;58.67
79690;BME280;69156;55.932;-3.238;2023-08-31T08:33:17;100212.00;;;16.08;57.66
79690;BME280;69156;55.932;-3.238;2023-08-31T08:35:43;100215.26;;;16.24;57.44
79690;BME280;69156;55.932;-3.238;2023-08-31T08:38:08;100218.00;;;16.12;57.49
79690;BME280;69156;55.932;-3.238;2023-08-31T08:40:34;100219.69;;;16.20;57.52
79690;BME280;69156;55.932;-3.238;2023-08-31T08:43:00;100220.64;;;16.43;57.11
79690;BME280;69156;55.932;-3.238;2023-08-31T08:45:34;100220.75;;;16.38;56.87
79690;BME280;69156;55.932;-3.238;2023-08-31T08:47:52;100221.28;;;16.39;56.76
79690;BME280;69156;55.932;-3.238;2023-08-31T08:50:17;100220.11;;;16.32;56.69
79690;BME280;69156;55.932;-3.238;2023-08-31T08:52:43;100222.10;;;16.35;56.72
79690;BME280;69156;55.932;-3.238;2023-08-31T08:55:09;100220.72;;;16.30;56.97
79690;BME280;69156;55.932;-3.238;2023-08-31T08:57:34;100220.79;;;16.44;57.16
79690;BME280;69156;55.932;-3.238;2023-08-31T08:59:59;100217.33;;;16.60;56.38
79690;BME280;69156;55.932;-3.238;2023-08-31T09:02:24;100216.56;;;16.82;56.06
79690;BME280;69156;55.932;-3.238;2023-08-31T09:04:50;100217.39;;;17.00;55.30
79690;BME280;69156;55.932;-3.238;2023-08-31T09:07:16;100215.95;;;16.61;55.94
79690;BME280;69156;55.932;-3.238;2023-08-31T09:09:49;100214.63;;;16.86;55.43
79690;BME280;69156;55.932;-3.238;2023-08-31T09:12:07;100214.36;;;16.77;55.64
79690;BME280;69156;55.932;-3.238;2023-08-31T09:14:32;100214.58;;;16.91;55.12
79690;BME280;69156;55.932;-3.238;2023-08-31T09:16:58;100212.05;;;16.89;55.37
79690;BME280;69156;55.932;-3.238;2023-08-31T09:19:25;100211.35;;;16.90;55.18
79690;BME280;69156;55.932;-3.238;2023-08-31T09:21:51;100209.10;;;16.95;54.75
79690;BME280;69156;55.932;-3.238;2023-08-31T09:24:16;100208.94;;;16.85;54.53
79690;BME280;69156;55.932;-3.238;2023-08-31T09:26:44;100205.68;;;17.16;54.27
79690;BME280;69156;55.932;-3.238;2023-08-31T09:29:07;100208.06;;;17.49;53.67
79690;BME280;69156;55.932;-3.238;2023-08-31T09:31:33;100210.94;;;17.51;53.23
79690;BME280;69156;55.932;-3.238;2023-08-31T09:33:58;100208.07;;;17.27;53.48
79690;BME280;69156;55.932;-3.238;2023-08-31T09:36:24;100209.11;;;17.33;53.85
79690;BME280;69156;55.932;-3.238;2023-08-31T09:38:49;100210.51;;;17.29;53.50
79690;BME280;69156;55.932;-3.238;2023-08-31T09:41:15;100208.53;;;17.37;53.33
79690;BME280;69156;55.932;-3.238;2023-08-31T09:43:40;100206.42;;;17.43;53.76
79690;BME280;69156;55.932;-3.238;2023-08-31T09:46:05;100205.76;;;17.39;53.77
79690;BME280;69156;55.932;-3.238;2023-08-31T09:48:31;100202.68;;;17.60;53.65
79690;BME280;69156;55.932;-3.238;2023-08-31T09:50:56;100197.57;;;17.65;53.34
79690;BME280;69156;55.932;-3.238;2023-08-31T09:53:23;100199.58;;;17.96;53.09
79690;BME280;69156;55.932;-3.238;2023-08-31T09:55:47;100197.55;;;18.20;52.28
79690;BME280;69156;55.932;-3.238;2023-08-31T09:58:12;100195.13;;;18.12;52.43
79690;BME280;69156;55.932;-3.238;2023-08-31T10:00:37;100197.78;;;18.04;52.61
79690;BME280;69156;55.932;-3.238;2023-08-31T10:03:05;100197.43;;;18.09;52.43
79690;BME280;69156;55.932;-3.238;2023-08-31T10:05:28;100195.13;;;18.13;53.06
79690;BME280;69156;55.932;-3.238;2023-08-31T10:07:55;100192.59;;;18.31;52.00
79690;BME280;69156;55.932;-3.238;2023-08-31T10:10:21;100184.93;;;18.52;51.82
79690;BME280;69156;55.932;-3.238;2023-08-31T10:12:50;100189.78;;;18.50;51.21
79690;BME280;69156;55.932;-3.238;2023-08-31T10:15:15;100190.20;;;18.36;51.37
79690;BME280;69156;55.932;-3.238;2023-08-31T10:17:40;100188.30;;;18.23;51.39
79690;BME280;69156;55.932;-3.238;2023-08-31T10:20:07;100187.75;;;18.10;52.19
79690;BME280;69156;55.932;-3.238;2023-08-31T10:22:31;100183.02;;;18.22;51.93
79690;BME280;69156;55.932;-3.238;2023-08-31T10:24:57;100184.88;;;18.29;51.43
79690;BME280;69156;55.932;-3.238;2023-08-31T10:27:21;100180.39;;;18.40;51.98
79690;BME280;69156;55.932;-3.238;2023-08-31T10:29:46;100177.61;;;18.40;51.34
79690;BME280;69156;55.932;-3.238;2023-08-31T10:32:17;100182.04;;;18.25;51.69
79690;BME280;69156;55.932;-3.238;2023-08-31T10:34:39;100176.15;;;18.00;52.34
79690;BME280;69156;55.932;-3.238;2023-08-31T10:37:19;100178.77;;;18.21;52.56
79690;BME280;69156;55.932;-3.238;2023-08-31T10:39:38;100174.67;;;18.65;52.09
79690;BME280;69156;55.932;-3.238;2023-08-31T10:41:56;100169.81;;;18.67;51.64
79690;BME280;69156;55.932;-3.238;2023-08-31T10:44:21;100165.93;;;18.58;51.35
79690;BME280;69156;55.932;-3.238;2023-08-31T10:46:47;100168.16;;;18.54;52.12
79690;BME280;69156;55.932;-3.238;2023-08-31T10:49:15;100168.19;;;18.66;51.50
79690;BME280;69156;55.932;-3.238;2023-08-31T10:51:39;100165.30;;;18.63;52.06
79690;BME280;69156;55.932;-3.238;2023-08-31T10:54:06;100168.12;;;18.70;52.12
79690;BME280;69156;55.932;-3.238;2023-08-31T10:56:30;100166.54;;;18.79;51.43
79690;BME280;69156;55.932;-3.238;2023-08-31T10:58:57;100162.91;;;18.97;51.40
79690;BME280;69156;55.932;-3.238;2023-08-31T11:01:51;100157.76;;;18.96;51.08
79690;BME280;69156;55.932;-3.238;2023-08-31T11:04:00;100158.05;;;18.99;51.35
79690;BME280;69156;55.932;-3.238;2023-08-31T11:06:14;100158.08;;;19.13;50.76
79690;BME280;69156;55.932;-3.238;2023-08-31T11:08:34;100154.19;;;19.10;49.98
79690;BME280;69156;55.932;-3.238;2023-08-31T11:11:00;100153.97;;;19.18;50.40
79690;BME280;69156;55.932;-3.238;2023-08-31T11:13:26;100151.50;;;18.95;50.39
79690;BME280;69156;55.932;-3.238;2023-08-31T11:15:51;100149.86;;;18.90;50.88
79690;BME280;69156;55.932;-3.238;2023-08-31T11:18:20;100151.82;;;18.97;51.03
79690;BME280;69156;55.932;-3.238;2023-08-31T11:20:42;100156.65;;;18.75;51.17
79690;BME280;69156;55.932;-3.238;2023-08-31T11:23:08;100153.67;;;18.82;51.43
79690;BME280;69156;55.932;-3.238;2023-08-31T11:25:35;100155.37;;;18.83;50.86
79690;BME280;69156;55.932;-3.238;2023-08-31T11:28:01;100160.67;;;18.69;51.41
79690;BME280;69156;55.932;-3.238;2023-08-31T11:30:26;100159.35;;;18.46;51.81
79690;BME280;69156;55.932;-3.238;2023-08-31T11:32:52;100162.17;;;18.48;52.41
79690;BME280;69156;55.932;-3.238;2023-08-31T11:35:18;100159.01;;;18.63;52.30
79690;BME280;69156;55.932;-3.238;2023-08-31T11:37:44;100158.18;;;18.34;52.89
79690;BME280;69156;55.932;-3.238;2023-08-31T11:40:10;100159.48;;;18.42;52.73
79690;BME280;69156;55.932;-3.238;2023-08-31T11:42:34;100159.27;;;18.68;51.94
79690;BME280;69156;55.932;-3.238;2023-08-31T11:45:01;100159.48;;;18.64;52.37
79690;BME280;69156;55.932;-3.238;2023-08-31T11:47:26;100162.44;;;18.70;51.97
79690;BME280;69156;55.932;-3.238;2023-08-31T11:49:51;100154.98;;;18.32;52.87
79690;BME280;69156;55.932;-3.238;2023-08-31T11:52:17;100159.69;;;18.48;52.62
79690;BME280;69156;55.932;-3.238;2023-08-31T11:54:43;100159.05;;;18.04;53.76
79690;BME280;69156;55.932;-3.238;2023-08-31T11:57:08;100159.43;;;18.27;53.12
79690;BME280;69156;55.932;-3.238;2023-08-31T11:59:35;100163.77;;;18.07;53.82
79690;BME280;69156;55.932;-3.238;2023-08-31T12:01:58;100164.48;;;17.89;54.00
79690;BME280;69156;55.932;-3.238;2023-08-31T12:04:23;100167.12;;;18.16;53.98
79690;BME280;69156;55.932;-3.238;2023-08-31T12:06:51;100170.50;;;18.08;53.97
79690;BME280;69156;55.932;-3.238;2023-08-31T12:09:14;100173.79;;;17.89;54.70
79690;BME280;69156;55.932;-3.238;2023-08-31T12:11:40;100169.13;;;17.61;55.16
79690;BME280;69156;55.932;-3.238;2023-08-31T12:14:22;100168.51;;;17.55;55.24
79690;BME280;69156;55.932;-3.238;2023-08-31T12:16:34;100167.88;;;17.52;55.53
79690;BME280;69156;55.932;-3.238;2023-08-31T12:18:59;100165.44;;;17.63;55.35
79690;BME280;69156;55.932;-3.238;2023-08-31T12:21:21;100163.28;;;17.65;54.92
79690;BME280;69156;55.932;-3.238;2023-08-31T12:23:46;100161.33;;;17.68;55.00
79690;BME280;69156;55.932;-3.238;2023-08-31T12:26:11;100157.88;;;17.59;55.25
79690;BME280;69156;55.932;-3.238;2023-08-31T12:28:37;100157.60;;;17.72;55.27
79690;BME280;69156;55.932;-3.238;2023-08-31T12:31:02;100160.89;;;17.76;54.88
79690;BME280;69156;55.932;-3.238;2023-08-31T12:33:28;100152.56;;;17.74;55.14
79690;BME280;69156;55.932;-3.238;2023-08-31T12:35:53;100156.99;;;17.83;55.31
79690;BME280;69156;55.932;-3.238;2023-08-31T12:38:19;100153.78;;;17.78;55.25
79690;BME280;69156;55.932;-3.238;2023-08-31T12:40:45;100151.88;;;18.02;55.13
79690;BME280;69156;55.932;-3.238;2023-08-31T12:43:10;100145.43;;;18.28;53.99
79690;BME280;69156;55.932;-3.238;2023-08-31T12:45:35;100147.11;;;18.57;53.58
79690;BME280;69156;55.932;-3.238;2023-08-31T12:48:00;100148.19;;;18.59;53.17
79690;BME280;69156;55.932;-3.238;2023-08-31T12:50:25;100150.78;;;18.62;53.31